Madbury, New Hampshire
Current Conditions -  °F | °C
As of 4:51 PM on Friday 19 Dec 2014 (Local Time) from KDAW Reporting Station
Clear Clear  
Wind Chill: 31°   Ceiling: Unl
Heat Index: 31°   Visibility: 10mi
Dew Point: 21°   Wind: 3mph
Humidity: 67%   Direction: NA
Pressure: 29.98"   Gusts: NA
Location:  43.17°N, 70.93°W
Report Text: KDAW 192151Z AUTO VRB03KT 10SM CLR M01/M06 A2998 RMK AO2 SLP153 T10061061
Loading
Personal Weather Stations






























Interactive Weather Map New forecast layout! Learn more

10-Day Weather Forecast

Advertisements
Track Severe Weather on mobile